Time;durP1;ratioP1;P1;durP2;ratioP2;P2;SDS_P1;SDS_P2;PMS_P1;PMS_P2;Temp;Humidity;BMP_temperature;BMP_pressure;BME280_temperature;BME280_humidity;BME280_pressure;Samples;Min_cycle;Max_cycle;Signal;HPM_P1;HPM_P2
2023/10/15 00:00:29;;;;;;;9.75;2.67;;;10.40;99.90;;;10.94;64.96;100733.19;5084106;28;20053;-84
2023/10/15 00:02:56;;;;;;;10.88;2.38;;;10.40;99.90;;;10.92;64.89;100727.22;5083100;28;20098;-84
2023/10/15 00:05:26;;;;;;;10.05;3.03;;;10.40;99.90;;;10.90;64.82;100722.09;5081344;28;20040;-84
2023/10/15 00:07:57;;;;;;;9.50;2.63;;;10.40;99.90;;;10.91;64.83;100729.06;5082910;28;20450;-84
2023/10/15 00:10:30;;;;;;;10.70;2.72;;;10.40;99.90;;;10.86;65.06;100725.38;5082045;28;20041;-84
2023/10/15 00:12:59;;;;;;;10.80;2.42;;;10.30;99.90;;;10.85;65.25;100734.41;5082101;28;20036;-84
2023/10/15 00:15:31;;;;;;;10.68;3.47;;;10.30;99.90;;;10.86;65.23;100722.72;5082491;28;20050;-84
2023/10/15 00:18:01;;;;;;;7.40;2.50;;;10.40;99.90;;;10.85;64.88;100732.56;5082229;28;20052;-84
2023/10/15 00:20:35;;;;;;;14.38;3.08;;;10.40;99.90;;;10.82;65.10;100727.63;5082019;28;20087;-84
2023/10/15 00:23:05;;;;;;;8.77;2.65;;;10.40;99.90;;;10.82;65.32;100727.63;5083354;28;20063;-84
2023/10/15 00:25:35;;;;;;;8.95;2.60;;;10.40;99.90;;;10.79;65.34;100718.22;5103270;28;20048;-84
2023/10/15 00:28:09;;;;;;;9.70;3.07;;;10.30;99.90;;;10.80;65.23;100716.34;5086002;28;20054;-84
2023/10/15 00:30:39;;;;;;;10.23;2.67;;;10.40;99.90;;;10.79;65.38;100717.38;5103617;28;20063;-84
2023/10/15 00:33:11;;;;;;;10.75;2.83;;;10.30;99.90;;;10.79;65.40;100714.72;5102531;28;20040;-84
2023/10/15 00:35:44;;;;;;;10.80;3.17;;;10.30;99.90;;;10.80;65.40;100713.69;5069491;28;20044;-84
2023/10/15 00:38:16;;;;;;;9.90;2.83;;;10.40;99.90;;;10.77;65.25;100714.91;5091093;28;20072;-84
2023/10/15 00:40:45;;;;;;;8.93;2.30;;;10.30;99.90;;;10.76;65.26;100721.28;5097954;28;20062;-84
2023/10/15 00:43:17;;;;;;;8.88;2.28;;;10.30;99.90;;;10.75;65.34;100719.63;5065362;28;20056;-84
2023/10/15 00:45:46;;;;;;;;;;;10.30;99.90;;;10.75;65.35;100716.97;5083269;28;20140;-84
2023/10/15 00:48:22;;;;;;;10.02;2.92;;;10.30;99.90;;;10.73;65.41;100721.66;5081511;28;19924;-84
2023/10/15 00:50:51;;;;;;;10.18;2.55;;;10.30;99.90;;;10.69;65.38;100717.81;5080720;28;20048;-84
2023/10/15 00:53:24;;;;;;;7.55;2.17;;;10.20;99.90;;;10.67;65.40;100713.69;5081847;28;20046;-84
2023/10/15 00:55:53;;;;;;;10.50;2.60;;;10.20;99.90;;;10.61;65.99;100711.84;5104078;28;20502;-83
2023/10/15 00:58:34;;;;;;;9.07;2.40;;;10.20;99.90;;;10.62;65.98;100711.63;5104576;28;20047;-83
2023/10/15 01:03:52;;;;;;;9.20;2.33;;;10.20;99.90;;;10.67;65.58;100706.50;5108292;27;20158;-83
2023/10/15 01:06:35;;;;;;;9.23;2.42;;;10.20;99.90;;;10.67;65.66;100714.50;5125024;27;20046;-83
2023/10/15 01:09:09;;;;;;;10.05;2.80;;;10.20;99.90;;;10.64;65.59;100711.41;5124894;27;20050;-84
2023/10/15 01:11:38;;;;;;;11.63;2.47;;;10.20;99.90;;;10.67;65.50;100706.50;5105975;27;20051;-84
2023/10/15 01:14:10;;;;;;;8.07;2.35;;;10.20;99.90;;;10.65;65.46;100708.56;5114524;27;20035;-84
2023/10/15 01:16:40;;;;;;;9.27;2.65;;;10.20;99.90;;;10.63;65.64;100699.94;5107566;27;20054;-84
2023/10/15 01:19:18;;;;;;;7.40;2.53;;;10.20;99.90;;;10.64;65.89;100695.41;5141608;27;20048;-84
2023/10/15 01:21:52;;;;;;;10.27;2.42;;;10.20;99.90;;;10.66;65.95;100706.72;5124429;27;20043;-84
2023/10/15 01:24:22;;;;;;;8.43;2.70;;;10.10;99.90;;;10.64;65.87;100701.59;5141870;27;20043;-84
2023/10/15 01:27:05;;;;;;;11.70;2.60;;;10.10;99.90;;;10.64;66.00;100704.25;5103687;28;20052;-84
2023/10/15 01:29:34;;;;;;;8.82;2.47;;;10.10;99.90;;;10.62;66.12;100703.63;5081717;28;20299;-84
2023/10/15 01:32:03;;;;;;;9.00;2.42;;;10.20;99.90;;;10.62;66.27;100700.16;5087435;28;20039;-84
2023/10/15 01:34:37;;;;;;;11.52;2.72;;;10.10;99.90;;;10.64;66.42;100690.94;5102102;28;20044;-83
2023/10/15 01:37:14;;;;;;;13.77;3.05;;;10.10;99.90;;;10.64;66.14;100698.94;5086406;28;20115;-83
2023/10/15 01:39:47;;;;;;;10.45;2.95;;;10.20;99.90;;;10.66;66.27;100685.38;5102071;28;20059;-83
2023/10/15 01:42:34;;;;;;;9.52;2.58;;;10.20;99.90;;;10.66;66.53;100699.53;5102058;28;20071;-83
2023/10/15 01:45:30;;;;;;;14.15;2.85;;;10.10;99.90;;;10.64;66.71;100728.28;5102322;28;20093;-83
2023/10/15 01:48:05;;;;;;;9.88;2.50;;;10.10;99.90;;;10.64;67.03;100722.94;5082267;28;20563;-84
2023/10/15 01:50:43;;;;;;;11.93;2.75;;;10.20;99.90;;;10.59;67.00;100746.72;5065308;28;20393;-84
2023/10/15 01:53:12;;;;;;;12.98;2.95;;;10.10;99.90;;;10.67;67.28;100708.34;5081759;28;20040;-84
2023/10/15 01:55:52;;;;;;;10.82;3.00;;;10.20;99.90;;;10.70;66.75;100721.28;5081336;28;20044;-84
2023/10/15 01:58:30;;;;;;;10.75;3.00;;;10.20;99.90;;;10.69;66.94;100759.66;5082157;28;20106;-84
2023/10/15 02:01:08;;;;;;;12.63;2.80;;;10.30;99.90;;;10.67;66.88;100743.84;5050802;28;20053;-84
2023/10/15 02:03:37;;;;;;;12.20;3.50;;;10.30;99.90;;;10.68;66.85;100734.00;5083320;28;20044;-84
2023/10/15 02:06:09;;;;;;;11.18;3.25;;;10.30;99.90;;;10.71;67.00;100749.59;5083600;28;20420;-84
2023/10/15 02:08:39;;;;;;;11.45;3.40;;;10.30;99.90;;;10.72;67.22;100746.72;5086576;28;20052;-84
2023/10/15 02:11:15;;;;;;;11.82;4.47;;;10.30;99.90;;;10.75;67.03;100737.50;5088498;28;20082;-84
2023/10/15 02:13:45;;;;;;;15.13;4.45;;;10.30;99.90;;;10.77;67.17;100743.44;5092616;28;20048;-84
2023/10/15 02:16:18;;;;;;;15.17;3.97;;;10.40;99.90;;;10.76;66.97;100731.94;5104974;28;20521;-84
2023/10/15 02:18:46;;;;;;;9.93;3.85;;;10.40;99.90;;;10.74;67.03;100730.53;5089533;28;20294;-84
2023/10/15 02:21:17;;;;;;;9.57;3.78;;;10.40;99.90;;;10.74;66.81;100743.88;5102735;28;20056;-84
2023/10/15 02:26:30;;;;;;;10.48;3.97;;;10.40;99.90;;;10.76;67.04;100742.63;5085233;28;20041;-84
2023/10/15 02:29:07;;;;;;;;;;;10.40;99.90;;;10.77;67.33;100733.59;5105089;28;20048;-84
2023/10/15 02:31:41;;;;;;;9.18;4.05;;;10.40;99.90;;;10.77;67.09;100741.59;5101828;28;20367;-84
2023/10/15 02:34:14;;;;;;;8.25;4.25;;;10.40;99.90;;;10.77;67.51;100738.09;5067222;28;20101;-83
2023/10/15 02:36:43;;;;;;;13.10;5.07;;;10.40;99.90;;;10.76;67.37;100736.47;5094112;28;20044;-84
2023/10/15 02:39:11;;;;;;;12.75;5.47;;;10.40;99.90;;;10.73;67.37;100740.34;5095915;28;20048;-84
2023/10/15 02:41:41;;;;;;;13.48;5.32;;;10.40;99.90;;;10.74;67.41;100731.34;5079565;28;20128;-84
2023/10/15 02:44:13;;;;;;;13.30;6.35;;;10.40;99.90;;;10.73;67.60;100732.34;5095827;28;20044;-84
2023/10/15 02:46:47;;;;;;;18.40;6.38;;;10.40;99.90;;;10.74;67.41;100739.34;5078090;28;20063;-84
2023/10/15 02:49:17;;;;;;;12.02;5.90;;;10.40;99.90;;;10.72;67.57;100746.72;5078257;28;20060;-84
2023/10/15 02:51:47;;;;;;;12.23;5.50;;;10.40;99.90;;;10.73;67.81;100748.34;5094252;28;20045;-84
2023/10/15 02:54:28;;;;;;;11.20;5.35;;;10.40;99.90;;;10.75;67.76;100738.31;5103354;28;20040;-84
2023/10/15 02:56:57;;;;;;;11.25;5.40;;;10.40;99.90;;;10.75;67.49;100745.50;5092854;28;20055;-84
2023/10/15 02:59:29;;;;;;;12.43;5.40;;;10.40;99.90;;;10.76;67.90;100747.94;5076161;28;20041;-84
2023/10/15 03:02:06;;;;;;;13.82;5.47;;;10.40;99.90;;;10.74;67.87;100752.69;5076800;28;20511;-84
2023/10/15 03:04:33;;;;;;;10.80;4.80;;;10.40;99.90;;;10.76;68.08;100749.81;5061683;28;20051;-84
2023/10/15 03:07:18;;;;;;;9.60;4.53;;;10.50;99.90;;;10.75;68.21;100751.66;5080731;28;20044;-84
2023/10/15 03:09:51;;;;;;;10.65;5.30;;;10.50;99.90;;;10.75;68.36;100745.50;5077462;28;20118;-84
2023/10/15 03:12:19;;;;;;;;;;;10.40;99.90;;;10.77;68.50;100744.25;5077256;28;20051;-84
2023/10/15 03:14:48;;;;;;;11.45;5.50;;;10.40;99.90;;;10.77;68.21;100738.09;5092942;28;19920;-84
2023/10/15 03:17:24;;;;;;;13.25;5.35;;;10.40;99.90;;;10.76;68.33;100736.47;5059211;28;20090;-84
2023/10/15 03:19:54;;;;;;;10.18;4.53;;;10.40;99.90;;;10.75;68.28;100740.16;5076954;28;20044;-84
2023/10/15 03:22:24;;;;;;;9.50;5.28;;;10.40;99.90;;;10.74;68.81;100728.69;5093893;28;20051;-84
2023/10/15 03:24:56;;;;;;;13.40;5.82;;;10.50;99.90;;;10.75;68.84;100716.97;5063157;28;20072;-84
2023/10/15 03:27:26;;;;;;;16.20;5.72;;;10.40;99.90;;;10.75;69.20;100721.50;5092208;28;20036;-84
2023/10/15 03:29:57;;;;;;;12.95;5.18;;;10.40;99.90;;;10.70;68.89;100726.63;5077770;28;20585;-84
2023/10/15 03:32:31;;;;;;;10.23;4.28;;;10.30;99.90;;;10.69;69.35;100730.31;5094856;28;20101;-83
2023/10/15 03:35:06;;;;;;;9.77;4.28;;;10.30;99.90;;;10.68;69.01;100726.81;5078005;28;20094;-83
2023/10/15 03:37:38;;;;;;;10.93;4.38;;;10.30;99.90;;;10.66;68.73;100726.22;5077546;28;20044;-83
2023/10/15 03:40:12;;;;;;;12.20;4.05;;;10.30;99.90;;;10.65;68.99;100739.75;5094663;28;20044;-83
2023/10/15 03:42:40;;;;;;;9.55;3.65;;;10.30;99.90;;;10.67;69.06;100741.19;5078650;28;20523;-83
2023/10/15 03:45:16;;;;;;;11.07;3.92;;;10.30;99.90;;;10.65;68.67;100729.91;5086022;28;20900;-83
2023/10/15 03:47:46;;;;;;;8.18;2.90;;;10.30;99.90;;;10.58;69.41;100734.41;5077435;28;20421;-83
2023/10/15 03:50:16;;;;;;;12.20;3.63;;;10.20;99.90;;;10.56;69.16;100731.13;5079023;28;20049;-83
2023/10/15 03:52:44;;;;;;;8.55;2.92;;;10.10;99.90;;;10.59;69.34;100728.06;5090230;28;20059;-83
2023/10/15 03:55:13;;;;;;;6.95;3.10;;;10.10;99.90;;;10.62;69.22;100737.50;5078644;28;20446;-83
2023/10/15 03:57:41;;;;;;;10.35;3.47;;;10.20;99.90;;;10.63;69.18;100736.44;5062071;28;20423;-83
2023/10/15 04:00:26;;;;;;;10.00;2.90;;;10.20;99.90;;;10.60;69.00;100747.56;5077918;28;20057;-83
2023/10/15 04:03:01;;;;;;;6.53;2.92;;;10.20;99.90;;;10.58;69.31;100758.41;5095499;28;20048;-83
2023/10/15 04:05:31;;;;;;;11.10;3.30;;;10.20;99.90;;;10.56;69.48;100757.81;5061348;28;20045;-83
2023/10/15 04:07:59;;;;;;;7.22;3.33;;;10.20;99.90;;;10.58;69.45;100763.75;5078812;28;20055;-83
2023/10/15 04:10:33;;;;;;;9.27;3.08;;;10.20;99.90;;;10.52;69.73;100756.56;5094259;28;20135;-83
2023/10/15 04:13:01;;;;;;;11.80;3.25;;;10.20;99.90;;;10.54;69.96;100742.00;5103114;28;20043;-83
2023/10/15 04:15:30;;;;;;;7.13;2.72;;;10.20;99.90;;;10.55;69.93;100740.97;5069570;28;20036;-83
2023/10/15 04:17:58;;;;;;;9.10;2.90;;;10.20;99.90;;;10.47;69.75;100743.00;5069155;28;20044;-83
2023/10/15 04:20:34;;;;;;;10.57;3.75;;;10.10;99.90;;;10.44;70.46;100727.41;5102160;28;20137;-84
2023/10/15 04:23:03;;;;;;;7.55;3.00;;;10.10;99.90;;;10.44;69.97;100727.41;5101888;28;20040;-84
2023/10/15 04:25:33;;;;;;;6.93;2.53;;;10.00;99.90;;;10.41;70.22;100733.16;5086914;28;20040;-84
2023/10/15 04:28:08;;;;;;;8.05;2.58;;;10.00;99.90;;;10.39;70.47;100737.88;5102362;28;20419;-84
2023/10/15 04:30:40;;;;;;;6.80;2.50;;;10.00;99.90;;;10.39;70.36;100737.88;5104266;28;20074;-84
2023/10/15 04:33:11;;;;;;;7.13;2.60;;;10.00;99.90;;;10.42;70.33;100745.47;5103939;28;20048;-84
2023/10/15 04:35:40;;;;;;;8.90;2.90;;;10.00;99.90;;;10.42;70.41;100750.81;5078243;28;20047;-84
2023/10/15 04:38:08;;;;;;;7.57;2.80;;;10.00;99.90;;;10.36;70.45;100757.78;5049255;28;20419;-83
2023/10/15 04:40:48;;;;;;;8.13;2.78;;;10.00;99.90;;;10.29;70.67;100751.59;5083179;28;20117;-83
2023/10/15 04:43:17;;;;;;;7.18;2.60;;;9.90;99.90;;;10.30;70.84;100751.41;5082931;28;20151;-83
2023/10/15 04:45:49;;;;;;;5.88;2.38;;;10.00;99.90;;;10.30;70.96;100742.59;5065135;28;20143;-83
2023/10/15 04:48:25;;;;;;;6.68;2.55;;;9.90;99.90;;;10.31;70.89;100738.91;5049193;28;20048;-83
2023/10/15 04:50:53;;;;;;;4.53;1.98;;;9.90;99.90;;;10.32;70.74;100728.03;5099467;28;20051;-84
2023/10/15 04:53:26;;;;;;;6.38;2.50;;;10.00;99.90;;;10.30;70.18;100715.94;5102811;28;20556;-84
2023/10/15 04:55:54;;;;;;;5.18;2.15;;;9.90;99.90;;;10.27;70.80;100711.81;5101055;28;20040;-84
2023/10/15 04:58:27;;;;;;;5.43;2.20;;;9.90;99.90;;;10.29;70.56;100703.59;5101473;28;20036;-84
2023/10/15 05:00:58;;;;;;;6.03;1.88;;;9.90;99.90;;;10.30;70.73;100713.28;5100816;28;20055;-84
2023/10/15 05:03:26;;;;;;;5.40;2.17;;;9.90;99.90;;;10.28;70.78;100710.78;5088798;28;20049;-83
2023/10/15 05:06:00;;;;;;;5.47;2.03;;;9.90;99.90;;;10.27;70.78;100708.34;5083689;28;20036;-83
2023/10/15 05:08:28;;;;;;;6.57;2.58;;;9.90;99.90;;;10.26;70.93;100715.50;5090068;28;20046;-84
2023/10/15 05:10:57;;;;;;;6.80;2.47;;;9.90;99.90;;;10.28;71.06;100723.31;5083012;28;20083;-84
2023/10/15 05:13:26;;;;;;;9.07;2.53;;;9.90;99.90;;;10.27;71.38;100725.16;5100488;28;20055;-84
2023/10/15 05:15:56;;;;;;;6.93;2.30;;;9.90;99.90;;;10.30;71.25;100723.94;5080413;28;20044;-84
2023/10/15 05:18:26;;;;;;;6.13;2.30;;;10.00;99.90;;;10.31;71.26;100718.38;5063719;28;20045;-83
2023/10/15 05:20:53;;;;;;;6.13;2.60;;;10.00;99.90;;;10.31;71.21;100726.38;5080360;28;20446;-83
2023/10/15 05:23:22;;;;;;;4.22;2.53;;;10.00;99.90;;;10.30;70.89;100727.41;5081549;28;20118;-83
2023/10/15 05:25:52;;;;;;;7.35;2.42;;;10.00;99.90;;;10.26;71.07;100730.69;5045732;28;20067;-84
2023/10/15 05:28:22;;;;;;;6.53;2.25;;;9.90;99.90;;;10.23;71.21;100731.06;5063525;28;20071;-84
2023/10/15 05:30:52;;;;;;;5.85;1.80;;;9.90;99.90;;;10.12;70.68;100739.66;5067092;28;20085;-84
2023/10/15 05:33:21;;;;;;;4.43;1.75;;;9.80;99.90;;;9.91;71.06;100732.63;5100045;28;20086;-83
2023/10/15 05:35:49;;;;;;;5.72;1.90;;;9.60;99.90;;;9.94;71.55;100734.88;5101432;28;20040;-83
2023/10/15 05:38:19;;;;;;;5.57;1.70;;;9.60;99.90;;;9.97;71.37;100724.66;5083543;28;20043;-83
2023/10/15 05:40:47;;;;;;;6.40;1.95;;;9.50;99.90;;;10.01;71.46;100723.22;5083768;28;20052;-84
2023/10/15 05:43:15;;;;;;;5.85;2.20;;;9.60;99.90;;;10.06;71.48;100726.09;5095701;28;20479;-83
2023/10/15 05:45:47;;;;;;;5.20;1.80;;;9.70;99.90;;;10.08;71.35;100728.56;5080728;28;20060;-83
2023/10/15 05:48:17;;;;;;;5.30;2.08;;;9.70;99.90;;;10.12;71.22;100732.47;5080973;28;20097;-83
2023/10/15 05:50:50;;;;;;;5.93;2.30;;;9.80;99.90;;;10.08;71.08;100733.91;5101874;28;20391;-83
2023/10/15 05:53:17;;;;;;;5.57;1.90;;;9.80;99.90;;;10.11;70.45;100736.16;5082900;28;20106;-83
2023/10/15 05:55:46;;;;;;;7.90;2.03;;;9.80;99.90;;;10.06;70.35;100739.44;5081731;28;20047;-83
2023/10/15 05:58:14;;;;;;;6.50;2.60;;;9.70;99.90;;;10.05;70.82;100744.94;5080067;28;20059;-82
2023/10/15 06:00:41;;;;;;;4.85;2.10;;;9.70;99.90;;;10.04;70.55;100749.44;5096382;28;20051;-82
2023/10/15 06:03:10;;;;;;;6.00;2.17;;;9.70;99.90;;;10.04;70.52;100759.28;5096734;28;20048;-83
2023/10/15 06:05:37;;;;;;;4.13;1.70;;;9.70;99.90;;;10.04;70.70;100759.28;5070786;28;20143;-84
2023/10/15 06:08:09;;;;;;;3.78;1.70;;;9.70;99.90;;;9.97;71.00;100759.28;5074786;28;20508;-83
2023/10/15 06:10:37;;;;;;;3.83;1.55;;;9.60;99.90;;;9.98;70.93;100758.25;5074676;28;20045;-83
2023/10/15 06:13:05;;;;;;;5.32;1.92;;;9.60;99.90;;;10.00;70.76;100758.91;5057261;28;20045;-84
2023/10/15 06:15:33;;;;;;;5.53;1.60;;;9.70;99.90;;;10.02;70.68;100758.69;5057320;28;20048;-83
2023/10/15 06:18:01;;;;;;;4.88;1.80;;;9.70;99.90;;;10.05;70.35;100760.94;5074541;28;20044;-82
2023/10/15 06:20:28;;;;;;;7.35;2.10;;;9.70;99.90;;;10.05;70.27;100753.78;5042658;28;20087;-83
2023/10/15 06:22:56;;;;;;;4.45;1.70;;;9.70;99.90;;;10.03;70.44;100753.16;5057404;28;20135;-83
2023/10/15 06:25:26;;;;;;;5.43;1.90;;;9.70;99.90;;;10.04;70.51;100754.78;5090613;28;20043;-84
2023/10/15 06:27:54;;;;;;;7.80;1.90;;;9.80;99.90;;;10.06;70.59;100767.94;5073782;28;20041;-83
2023/10/15 06:30:21;;;;;;;4.28;1.50;;;9.70;99.90;;;10.05;70.97;100760.94;5072914;28;20071;-83
2023/10/15 06:32:49;;;;;;;6.10;1.60;;;9.70;99.90;;;10.04;70.83;100764.63;5059227;28;20071;-84
2023/10/15 06:35:19;;;;;;;3.85;1.70;;;9.70;99.90;;;10.05;70.80;100763.59;5075387;28;20052;-84
2023/10/15 06:37:47;;;;;;;4.47;1.42;;;9.70;99.90;;;10.05;70.99;100761.78;5094054;28;20052;-83
2023/10/15 06:40:15;;;;;;;3.67;1.30;;;9.70;99.90;;;10.06;70.78;100760.75;5076975;28;20040;-81
2023/10/15 06:42:46;;;;;;;4.90;1.40;;;9.70;99.90;;;10.06;70.96;100767.94;5094668;28;20103;-81
2023/10/15 06:45:19;;;;;;;4.47;1.45;;;9.80;99.90;;;10.08;70.98;100765.88;5076606;28;20090;-84
2023/10/15 06:47:49;;;;;;;4.60;1.45;;;9.80;99.90;;;10.11;70.97;100770.00;5079423;28;20048;-84
2023/10/15 06:50:19;;;;;;;3.70;1.30;;;10.10;99.90;;;10.10;70.94;100779.81;5095356;28;20093;-84
2023/10/15 06:52:47;;;;;;;5.97;1.55;;;9.80;99.90;;;10.11;71.00;100785.97;5078191;28;20050;-84
2023/10/15 06:55:16;;;;;;;4.40;1.20;;;9.80;99.90;;;10.13;71.40;100792.75;5107775;28;20036;-84
2023/10/15 06:57:45;;;;;;;3.70;1.10;;;9.80;99.90;;;10.15;71.22;100797.88;5077930;28;20100;-84
2023/10/15 07:00:21;;;;;;;3.45;1.13;;;9.80;99.90;;;10.14;70.94;100801.56;5094716;28;20117;-84
2023/10/15 07:02:49;;;;;;;3.25;1.17;;;9.80;99.90;;;10.13;71.06;100799.91;5088103;28;20102;-83
2023/10/15 07:05:18;;;;;;;4.55;1.60;;;9.80;99.90;;;10.15;71.40;100806.72;5085144;28;20111;-84
2023/10/15 07:07:46;;;;;;;4.93;1.23;;;9.80;99.90;;;10.11;71.31;100805.47;5112631;28;20044;-84
2023/10/15 07:10:15;;;;;;;3.92;1.42;;;9.80;99.90;;;10.15;71.74;100814.69;5088316;28;20120;-83
2023/10/15 07:12:50;;;;;;;5.40;1.48;;;9.90;99.90;;;10.20;71.62;100817.59;5041748;28;20045;-83
2023/10/15 07:15:20;;;;;;;5.28;1.30;;;9.80;99.90;;;10.22;71.73;100820.88;5084903;28;20096;-83
2023/10/15 07:17:50;;;;;;;6.20;1.30;;;9.90;99.90;;;10.22;71.52;100823.53;5094773;28;20058;-84
2023/10/15 07:20:21;;;;;;;4.85;1.30;;;9.90;99.90;;;10.21;71.53;100835.22;5080434;28;20341;-83
2023/10/15 07:22:53;;;;;;;3.28;1.27;;;9.90;99.90;;;10.15;71.81;100835.16;5112809;28;20071;-83
2023/10/15 07:25:24;;;;;;;4.97;1.50;;;9.80;99.90;;;10.17;71.71;100839.28;5079021;28;20558;-83
2023/10/15 07:27:55;;;;;;;5.10;1.43;;;9.90;99.90;;;10.12;71.74;100844.41;5089086;28;20043;-83
2023/10/15 07:30:23;;;;;;;4.40;1.70;;;9.90;99.90;;;10.10;72.11;100853.59;5097327;28;20048;-85
2023/10/15 07:32:53;;;;;;;6.38;1.80;;;9.90;99.90;;;10.18;72.00;100856.94;5081998;28;20503;-83
2023/10/15 07:35:22;;;;;;;4.78;1.85;;;9.90;99.90;;;10.21;72.11;100861.06;5094517;28;20104;-82
2023/10/15 07:37:50;;;;;;;6.60;2.15;;;9.90;99.90;;;10.09;72.11;100851.97;5076945;28;20047;-82
2023/10/15 07:40:21;;;;;;;6.97;2.22;;;9.80;99.90;;;10.07;72.10;100839.66;5108654;28;20442;-82
2023/10/15 07:42:52;;;;;;;3.65;1.58;;;9.80;99.90;;;10.13;72.17;100842.56;5118881;28;20069;-82
2023/10/15 07:45:26;;;;;;;4.20;1.45;;;9.90;99.90;;;10.15;71.85;100848.50;5119072;28;20040;-83
2023/10/15 07:47:59;;;;;;;3.53;1.58;;;9.90;99.90;;;10.20;71.96;100851.38;5123722;28;20131;-83
2023/10/15 07:50:29;;;;;;;5.95;1.85;;;10.00;99.90;;;10.25;72.25;100854.34;5121705;28;20055;-83
2023/10/15 07:52:57;;;;;;;5.00;1.45;;;10.00;99.90;;;10.21;72.62;100858.38;5104979;28;20512;-83
2023/10/15 07:55:24;;;;;;;5.63;2.00;;;10.10;99.90;;;10.29;72.69;100861.72;5123622;28;20067;-83
2023/10/15 07:57:54;;;;;;;5.65;1.60;;;10.10;99.90;;;10.41;72.52;100861.16;5104429;28;20067;-83
2023/10/15 08:00:25;;;;;;;5.13;2.17;;;10.20;99.90;;;10.34;71.93;100866.44;5122087;28;20138;-83
2023/10/15 08:02:57;;;;;;;3.85;1.60;;;10.20;99.90;;;10.23;73.17;100872.31;5090781;28;20043;-83
2023/10/15 08:05:25;;;;;;;5.90;1.90;;;10.10;99.90;;;10.38;73.79;100874.88;5119103;28;20101;-83
2023/10/15 08:07:54;;;;;;;4.63;1.80;;;10.30;99.90;;;10.44;73.13;100880.25;5103238;28;20132;-83
2023/10/15 08:10:23;;;;;;;3.78;1.40;;;10.40;99.90;;;10.51;73.50;100874.94;5103441;28;20048;-83
2023/10/15 08:12:51;;;;;;;4.63;1.50;;;10.50;99.90;;;10.56;73.17;100881.28;5102937;28;20044;-83
2023/10/15 08:15:21;;;;;;;3.30;1.20;;;10.50;99.90;;;10.66;73.38;100875.56;5102007;28;20383;-83
2023/10/15 08:17:49;;;;;;;4.75;1.35;;;10.60;99.90;;;10.66;73.17;100880.91;5082630;28;20056;-83
2023/10/15 08:20:17;;;;;;;4.43;1.38;;;10.60;99.90;;;10.68;72.59;100886.84;5101903;28;20044;-83
2023/10/15 08:22:45;;;;;;;5.13;1.70;;;10.60;99.90;;;10.69;72.61;100885.84;5092655;28;20055;-83
2023/10/15 08:25:14;;;;;;;3.47;1.38;;;10.60;99.90;;;10.71;72.29;100882.97;5111250;28;20031;-83
2023/10/15 08:27:44;;;;;;;5.50;1.60;;;10.60;99.90;;;10.63;71.74;100883.97;5120958;28;20047;-83
2023/10/15 08:30:13;;;;;;;4.60;1.23;;;10.50;99.90;;;10.64;71.97;100892.78;5122921;28;20043;-83
2023/10/15 08:32:44;;;;;;;4.95;1.50;;;10.40;99.90;;;10.52;71.08;100887.22;5122318;28;20070;-83
2023/10/15 08:35:13;;;;;;;3.57;1.50;;;10.30;99.90;;;10.54;71.89;100901.16;5112277;28;20044;-83
2023/10/15 08:37:43;;;;;;;3.75;1.27;;;10.30;99.90;;;10.58;71.59;100905.91;5122439;28;20039;-83
2023/10/15 08:40:15;;;;;;;4.55;1.30;;;10.40;99.90;;;10.60;71.85;100905.72;5121512;28;20040;-83
2023/10/15 08:42:50;;;;;;;5.18;1.50;;;10.40;99.90;;;10.55;70.95;100905.50;5102180;28;20464;-83
2023/10/15 08:45:21;;;;;;;3.80;1.20;;;10.40;99.90;;;10.44;71.51;100914.06;5121999;28;20082;-83
2023/10/15 08:47:51;;;;;;;5.38;1.45;;;10.30;99.90;;;10.46;71.17;100928.03;5122503;28;20498;-83
2023/10/15 08:50:21;;;;;;;5.60;1.48;;;10.30;99.90;;;10.40;71.43;100924.31;5084704;28;20052;-83
2023/10/15 08:52:54;;;;;;;4.65;1.42;;;10.30;99.90;;;10.50;71.70;100929.28;5097337;28;20071;-83
2023/10/15 08:55:24;;;;;;;5.80;1.52;;;10.30;99.90;;;10.51;71.72;100933.59;5084476;28;20048;-83
2023/10/15 08:57:56;;;;;;;3.95;1.60;;;10.30;99.90;;;10.61;71.79;100936.72;5085401;28;20091;-83
2023/10/15 09:00:29;;;;;;;3.65;1.42;;;10.40;99.90;;;10.64;71.22;100949.66;5088488;28;20104;-83
2023/10/15 09:03:00;;;;;;;4.80;1.70;;;10.50;99.90;;;10.68;71.45;100942.88;5068783;28;20502;-83
2023/10/15 09:05:30;;;;;;;4.20;1.70;;;10.50;99.90;;;10.67;71.36;100953.75;5084640;28;20084;-83
2023/10/15 09:08:04;;;;;;;3.75;1.58;;;10.50;99.90;;;10.77;71.80;100955.00;5096363;28;20098;-83
2023/10/15 09:10:32;;;;;;;4.97;1.70;;;10.70;99.90;;;10.85;71.92;100948.69;5085210;28;20061;-83
2023/10/15 09:13:00;;;;;;;6.40;1.95;;;10.80;99.90;;;10.78;71.47;100956.69;5099695;28;20044;-83
2023/10/15 09:15:29;;;;;;;4.18;1.50;;;10.80;99.90;;;10.74;71.10;100957.28;5112419;28;20040;-83
2023/10/15 09:18:03;;;;;;;6.85;2.08;;;10.80;99.90;;;10.80;71.44;100959.97;5120795;28;20054;-83
2023/10/15 09:20:33;;;;;;;3.45;1.27;;;10.80;99.90;;;10.77;70.52;100972.88;5111817;28;20044;-83
2023/10/15 09:29:43;;;;;;;;;;;10.80;99.90;;;10.88;70.56;100979.47;5921154;22;20053;-83
2023/10/15 09:32:13;;;;;;;8.38;2.35;;;10.90;99.90;;;10.88;70.60;100976.81;5022516;28;19921;-84
2023/10/15 09:34:42;;;;;;;4.07;1.70;;;10.80;99.90;;;10.87;70.89;100988.50;5020802;28;20068;-84
2023/10/15 09:37:10;;;;;;;4.63;2.05;;;10.80;99.90;;;10.80;70.39;100993.81;5002770;28;20081;-83
2023/10/15 09:39:40;;;;;;;6.13;2.20;;;10.70;99.90;;;10.75;70.13;100994.44;5002154;28;20532;-83
2023/10/15 09:42:09;;;;;;;6.15;2.67;;;10.60;99.90;;;10.66;70.80;101003.63;5002207;28;20050;-83
2023/10/15 09:44:41;;;;;;;6.47;3.00;;;10.50;99.90;;;10.60;70.53;101008.94;5002444;28;20085;-83
2023/10/15 09:47:10;;;;;;;5.78;2.90;;;10.40;99.90;;;10.62;70.84;101010.38;5020786;28;20070;-84
2023/10/15 09:49:39;;;;;;;6.40;2.80;;;10.40;99.90;;;10.67;70.88;101013.25;5039300;28;20487;-83
2023/10/15 09:52:10;;;;;;;7.38;2.95;;;10.50;99.90;;;10.74;71.31;101015.97;5004965;28;20095;-83
2023/10/15 09:54:42;;;;;;;5.13;2.53;;;10.50;99.90;;;10.73;71.04;101016.97;5027984;28;20112;-84
2023/10/15 09:57:11;;;;;;;6.75;3.35;;;10.50;99.90;;;10.82;71.33;101021.94;5036289;28;20128;-83
2023/10/15 09:59:38;;;;;;;7.15;3.03;;;10.60;99.90;;;10.91;71.61;101025.28;5040336;28;20493;-83
2023/10/15 10:02:12;;;;;;;5.07;2.95;;;10.70;99.90;;;10.97;71.16;101020.97;5023621;28;20049;-83
2023/10/15 10:05:27;;;;;;;5.25;2.85;;;10.80;99.90;;;10.82;70.90;101026.47;5041101;28;20091;-83
2023/10/15 10:08:10;;;;;;;6.00;2.97;;;10.70;99.90;;;10.85;71.03;101023.41;5027635;28;20079;-83
2023/10/15 10:11:11;;;;;;;5.53;2.67;;;10.70;99.90;;;10.94;71.83;101032.88;5019384;28;20045;-83
2023/10/15 10:14:02;;;;;;;8.67;3.90;;;10.80;99.90;;;10.98;69.84;101035.97;5049443;28;20046;-83
2023/10/15 10:16:32;;;;;;;6.20;3.47;;;10.90;99.90;;;11.00;71.05;101033.94;5021610;28;20041;-84
2023/10/15 10:19:03;;;;;;;8.95;3.72;;;10.90;99.90;;;10.98;70.63;101034.13;5021814;28;20045;-83
2023/10/15 10:21:32;;;;;;;7.78;3.42;;;10.90;99.90;;;11.05;71.10;101040.31;5039626;28;20041;-83
2023/10/15 10:24:02;;;;;;;8.77;3.33;;;11.00;99.90;;;11.13;71.83;101041.16;5035737;28;20076;-83
2023/10/15 10:26:33;;;;;;;12.20;3.72;;;11.00;99.90;;;11.10;69.98;101045.03;4999429;28;20150;-83
2023/10/15 10:29:03;;;;;;;7.30;3.40;;;11.00;99.90;;;11.06;69.09;101041.94;5000044;28;20090;-83
2023/10/15 10:31:33;;;;;;;6.55;3.63;;;11.00;99.90;;;11.02;69.12;101048.69;4983970;28;20050;-83
2023/10/15 10:34:03;;;;;;;6.93;4.28;;;10.90;99.90;;;11.04;69.63;101040.50;5001395;28;20477;-84
2023/10/15 10:36:37;;;;;;;12.52;4.78;;;11.00;99.90;;;11.12;69.54;101048.31;5018641;28;20058;-83
2023/10/15 10:39:14;;;;;;;9.35;4.38;;;11.00;99.90;;;11.05;68.17;101044.81;5018482;28;20046;-83
2023/10/15 10:41:44;;;;;;;9.57;4.03;;;11.00;99.90;;;11.06;68.87;101057.13;4999183;28;20537;-83